FCM weather

Flying Cloud Airport
Minneapolis, Minnesota, United States

Public forecast

Using degrees Fahrenheit for public forecast. Weather courtesy of forecast.io.

METAR (pilot weather report)

Retrieved 2019/05/25 21:53 UTC (38 minutes ago):

KFCM 252153Z 28013G22KT 10SM BKN049 19/07 A2993 RMK AO2 SLP132 T01890072

TAF (pilot weather forecast)

Forecast is more than 12 hours old.

Retrieved 2018/02/05 00:21 UTC (1 year ago):

TAF KFCM 052320Z 0600/0624 30007KT P6SM FEW200 FM061000 VRB03KT P6SM FEW250 FM061800 22006KT P6SM SCT100 BKN250 AMD NOT SKED